sensor_id;sensor_type;location;lat;lon;timestamp;P1;durP1;ratioP1;P2;durP2;ratioP2
16472;SDS011;8347;52.486;13.432;2023-05-10T00:01:11;7.57;;;4.72;;
16472;SDS011;8347;52.486;13.432;2023-05-10T00:03:57;7.32;;;5.05;;
16472;SDS011;8347;52.486;13.432;2023-05-10T00:06:43;8.05;;;5.35;;
16472;SDS011;8347;52.486;13.432;2023-05-10T00:09:30;9.18;;;5.75;;
16472;SDS011;8347;52.486;13.432;2023-05-10T00:12:17;7.03;;;5.18;;
16472;SDS011;8347;52.486;13.432;2023-05-10T00:15:03;7.85;;;5.05;;
16472;SDS011;8347;52.486;13.432;2023-05-10T00:17:50;10.52;;;5.75;;
16472;SDS011;8347;52.486;13.432;2023-05-10T00:20:36;7.82;;;5.05;;
16472;SDS011;8347;52.486;13.432;2023-05-10T00:23:23;7.07;;;4.65;;
16472;SDS011;8347;52.486;13.432;2023-05-10T00:26:10;6.13;;;5.03;;
16472;SDS011;8347;52.486;13.432;2023-05-10T00:28:57;5.72;;;4.68;;
16472;SDS011;8347;52.486;13.432;2023-05-10T00:31:44;6.22;;;5.22;;
16472;SDS011;8347;52.486;13.432;2023-05-10T00:34:30;7.05;;;4.82;;
16472;SDS011;8347;52.486;13.432;2023-05-10T00:37:17;7.25;;;5.00;;
16472;SDS011;8347;52.486;13.432;2023-05-10T00:40:04;8.07;;;4.97;;
16472;SDS011;8347;52.486;13.432;2023-05-10T00:42:51;6.85;;;5.15;;
16472;SDS011;8347;52.486;13.432;2023-05-10T00:45:40;6.90;;;5.53;;
16472;SDS011;8347;52.486;13.432;2023-05-10T00:48:28;9.45;;;5.65;;
16472;SDS011;8347;52.486;13.432;2023-05-10T00:51:15;7.60;;;5.38;;
16472;SDS011;8347;52.486;13.432;2023-05-10T00:54:01;6.60;;;5.15;;
16472;SDS011;8347;52.486;13.432;2023-05-10T00:56:48;9.20;;;6.47;;
16472;SDS011;8347;52.486;13.432;2023-05-10T00:59:35;9.88;;;5.57;;
16472;SDS011;8347;52.486;13.432;2023-05-10T01:02:21;7.63;;;5.20;;
16472;SDS011;8347;52.486;13.432;2023-05-10T01:05:08;6.63;;;5.38;;
16472;SDS011;8347;52.486;13.432;2023-05-10T01:07:54;7.53;;;5.93;;
16472;SDS011;8347;52.486;13.432;2023-05-10T01:10:42;6.38;;;4.72;;
16472;SDS011;8347;52.486;13.432;2023-05-10T01:13:36;8.30;;;5.07;;
16472;SDS011;8347;52.486;13.432;2023-05-10T01:16:25;13.90;;;5.63;;
16472;SDS011;8347;52.486;13.432;2023-05-10T01:19:15;6.85;;;4.78;;
16472;SDS011;8347;52.486;13.432;2023-05-10T01:31:02;7.78;;;5.20;;
16472;SDS011;8347;52.486;13.432;2023-05-10T01:34:01;9.00;;;5.55;;
16472;SDS011;8347;52.486;13.432;2023-05-10T01:36:55;6.20;;;5.07;;
16472;SDS011;8347;52.486;13.432;2023-05-10T01:39:58;15.75;;;5.50;;
16472;SDS011;8347;52.486;13.432;2023-05-10T01:43:07;6.50;;;5.40;;
16472;SDS011;8347;52.486;13.432;2023-05-10T01:46:05;6.50;;;5.40;;
16472;SDS011;8347;52.486;13.432;2023-05-10T01:48:57;5.88;;;5.05;;
16472;SDS011;8347;52.486;13.432;2023-05-10T01:51:50;9.15;;;5.65;;
16472;SDS011;8347;52.486;13.432;2023-05-10T01:54:41;8.88;;;5.30;;
16472;SDS011;8347;52.486;13.432;2023-05-10T01:57:31;8.30;;;5.70;;
16472;SDS011;8347;52.486;13.432;2023-05-10T02:00:20;9.80;;;5.60;;
16472;SDS011;8347;52.486;13.432;2023-05-10T02:03:11;9.27;;;5.88;;
16472;SDS011;8347;52.486;13.432;2023-05-10T02:05:58;12.23;;;6.32;;
16472;SDS011;8347;52.486;13.432;2023-05-10T02:08:45;8.73;;;6.03;;
16472;SDS011;8347;52.486;13.432;2023-05-10T02:11:32;9.40;;;6.22;;
16472;SDS011;8347;52.486;13.432;2023-05-10T02:14:19;7.20;;;5.55;;
16472;SDS011;8347;52.486;13.432;2023-05-10T02:17:06;11.63;;;6.15;;
16472;SDS011;8347;52.486;13.432;2023-05-10T02:19:54;7.88;;;5.97;;
16472;SDS011;8347;52.486;13.432;2023-05-10T02:22:42;7.68;;;5.22;;
16472;SDS011;8347;52.486;13.432;2023-05-10T02:25:31;11.35;;;5.40;;
16472;SDS011;8347;52.486;13.432;2023-05-10T02:28:18;6.43;;;4.57;;
16472;SDS011;8347;52.486;13.432;2023-05-10T02:31:06;6.68;;;5.45;;
16472;SDS011;8347;52.486;13.432;2023-05-10T02:33:54;5.82;;;5.20;;
16472;SDS011;8347;52.486;13.432;2023-05-10T02:36:42;10.63;;;5.90;;
16472;SDS011;8347;52.486;13.432;2023-05-10T02:39:29;6.97;;;5.25;;
16472;SDS011;8347;52.486;13.432;2023-05-10T02:42:23;8.00;;;5.38;;
16472;SDS011;8347;52.486;13.432;2023-05-10T02:45:12;8.15;;;5.07;;
16472;SDS011;8347;52.486;13.432;2023-05-10T02:47:59;10.77;;;5.75;;
16472;SDS011;8347;52.486;13.432;2023-05-10T02:50:46;10.45;;;6.57;;
16472;SDS011;8347;52.486;13.432;2023-05-10T02:53:37;10.63;;;5.32;;
16472;SDS011;8347;52.486;13.432;2023-05-10T02:56:31;7.47;;;5.40;;
16472;SDS011;8347;52.486;13.432;2023-05-10T02:59:19;5.85;;;4.75;;
16472;SDS011;8347;52.486;13.432;2023-05-10T03:02:05;10.32;;;5.03;;
16472;SDS011;8347;52.486;13.432;2023-05-10T03:04:52;6.60;;;4.82;;
16472;SDS011;8347;52.486;13.432;2023-05-10T03:07:39;6.00;;;4.38;;
16472;SDS011;8347;52.486;13.432;2023-05-10T03:10:27;7.78;;;5.07;;
16472;SDS011;8347;52.486;13.432;2023-05-10T03:13:21;7.13;;;5.38;;
16472;SDS011;8347;52.486;13.432;2023-05-10T03:16:29;8.07;;;5.47;;
16472;SDS011;8347;52.486;13.432;2023-05-10T03:19:22;8.93;;;4.68;;
16472;SDS011;8347;52.486;13.432;2023-05-10T03:22:10;8.40;;;5.28;;
16472;SDS011;8347;52.486;13.432;2023-05-10T03:24:59;8.65;;;5.72;;
16472;SDS011;8347;52.486;13.432;2023-05-10T03:27:49;9.50;;;5.50;;
16472;SDS011;8347;52.486;13.432;2023-05-10T03:30:36;11.43;;;5.53;;
16472;SDS011;8347;52.486;13.432;2023-05-10T03:33:24;7.32;;;4.93;;
16472;SDS011;8347;52.486;13.432;2023-05-10T03:36:11;6.93;;;4.88;;
16472;SDS011;8347;52.486;13.432;2023-05-10T03:38:57;7.28;;;5.50;;
16472;SDS011;8347;52.486;13.432;2023-05-10T03:41:44;9.40;;;4.32;;
16472;SDS011;8347;52.486;13.432;2023-05-10T03:44:31;8.70;;;4.60;;
16472;SDS011;8347;52.486;13.432;2023-05-10T03:47:19;6.18;;;4.60;;
16472;SDS011;8347;52.486;13.432;2023-05-10T03:50:06;29.13;;;7.88;;
16472;SDS011;8347;52.486;13.432;2023-05-10T03:52:52;13.60;;;5.50;;
16472;SDS011;8347;52.486;13.432;2023-05-10T03:55:39;10.20;;;6.05;;
16472;SDS011;8347;52.486;13.432;2023-05-10T03:58:25;7.53;;;5.22;;
16472;SDS011;8347;52.486;13.432;2023-05-10T04:01:12;8.32;;;5.65;;
16472;SDS011;8347;52.486;13.432;2023-05-10T04:03:58;6.88;;;4.50;;
16472;SDS011;8347;52.486;13.432;2023-05-10T04:06:45;6.80;;;4.90;;
16472;SDS011;8347;52.486;13.432;2023-05-10T04:09:31;8.20;;;5.20;;
16472;SDS011;8347;52.486;13.432;2023-05-10T04:12:18;9.73;;;4.97;;
16472;SDS011;8347;52.486;13.432;2023-05-10T04:15:04;7.22;;;4.88;;
16472;SDS011;8347;52.486;13.432;2023-05-10T04:17:52;8.40;;;4.90;;
16472;SDS011;8347;52.486;13.432;2023-05-10T04:20:39;11.02;;;4.40;;
16472;SDS011;8347;52.486;13.432;2023-05-10T04:23:26;8.50;;;4.43;;
16472;SDS011;8347;52.486;13.432;2023-05-10T04:26:13;6.32;;;4.38;;
16472;SDS011;8347;52.486;13.432;2023-05-10T04:29:00;8.90;;;4.35;;
16472;SDS011;8347;52.486;13.432;2023-05-10T04:31:46;8.70;;;4.57;;
16472;SDS011;8347;52.486;13.432;2023-05-10T04:34:34;8.10;;;5.57;;
16472;SDS011;8347;52.486;13.432;2023-05-10T04:37:20;10.13;;;4.88;;
16472;SDS011;8347;52.486;13.432;2023-05-10T04:40:08;9.75;;;4.30;;
16472;SDS011;8347;52.486;13.432;2023-05-10T04:42:55;6.40;;;4.38;;
16472;SDS011;8347;52.486;13.432;2023-05-10T04:45:41;8.05;;;4.38;;
16472;SDS011;8347;52.486;13.432;2023-05-10T04:48:28;6.38;;;4.03;;
16472;SDS011;8347;52.486;13.432;2023-05-10T04:51:14;5.45;;;4.10;;
16472;SDS011;8347;52.486;13.432;2023-05-10T04:54:01;6.57;;;3.75;;
16472;SDS011;8347;52.486;13.432;2023-05-10T04:56:47;4.68;;;3.70;;
16472;SDS011;8347;52.486;13.432;2023-05-10T04:59:35;8.43;;;3.53;;
16472;SDS011;8347;52.486;13.432;2023-05-10T05:02:22;5.75;;;3.25;;
16472;SDS011;8347;52.486;13.432;2023-05-10T05:05:09;4.50;;;3.30;;
16472;SDS011;8347;52.486;13.432;2023-05-10T05:07:55;5.85;;;3.40;;
16472;SDS011;8347;52.486;13.432;2023-05-10T05:10:42;6.07;;;4.35;;
16472;SDS011;8347;52.486;13.432;2023-05-10T05:13:29;4.55;;;3.60;;
16472;SDS011;8347;52.486;13.432;2023-05-10T05:16:15;6.68;;;3.97;;
16472;SDS011;8347;52.486;13.432;2023-05-10T05:19:02;6.20;;;3.40;;
16472;SDS011;8347;52.486;13.432;2023-05-10T05:21:49;6.68;;;3.50;;
16472;SDS011;8347;52.486;13.432;2023-05-10T05:24:36;5.40;;;3.90;;
16472;SDS011;8347;52.486;13.432;2023-05-10T05:27:25;5.45;;;3.47;;
16472;SDS011;8347;52.486;13.432;2023-05-10T05:30:13;12.25;;;4.63;;
16472;SDS011;8347;52.486;13.432;2023-05-10T05:33:00;6.28;;;3.05;;
16472;SDS011;8347;52.486;13.432;2023-05-10T05:35:46;5.78;;;3.85;;
16472;SDS011;8347;52.486;13.432;2023-05-10T05:38:36;6.63;;;3.92;;
16472;SDS011;8347;52.486;13.432;2023-05-10T05:41:22;4.97;;;3.80;;
16472;SDS011;8347;52.486;13.432;2023-05-10T05:44:10;6.55;;;3.35;;
16472;SDS011;8347;52.486;13.432;2023-05-10T05:46:56;5.57;;;3.42;;
16472;SDS011;8347;52.486;13.432;2023-05-10T05:49:42;3.80;;;3.00;;
16472;SDS011;8347;52.486;13.432;2023-05-10T05:52:31;6.32;;;2.72;;
16472;SDS011;8347;52.486;13.432;2023-05-10T05:55:18;10.68;;;5.05;;
16472;SDS011;8347;52.486;13.432;2023-05-10T05:58:04;6.70;;;3.13;;
16472;SDS011;8347;52.486;13.432;2023-05-10T06:00:51;5.20;;;3.10;;
16472;SDS011;8347;52.486;13.432;2023-05-10T06:03:38;7.60;;;3.20;;
16472;SDS011;8347;52.486;13.432;2023-05-10T06:06:24;5.22;;;3.13;;
16472;SDS011;8347;52.486;13.432;2023-05-10T06:09:11;3.45;;;2.88;;
16472;SDS011;8347;52.486;13.432;2023-05-10T06:11:58;5.35;;;3.17;;
16472;SDS011;8347;52.486;13.432;2023-05-10T06:14:44;4.88;;;3.13;;
16472;SDS011;8347;52.486;13.432;2023-05-10T06:17:31;4.72;;;2.47;;
16472;SDS011;8347;52.486;13.432;2023-05-10T06:20:17;3.95;;;2.50;;
16472;SDS011;8347;52.486;13.432;2023-05-10T06:23:04;2.58;;;2.38;;
16472;SDS011;8347;52.486;13.432;2023-05-10T06:25:51;2.65;;;2.38;;
16472;SDS011;8347;52.486;13.432;2023-05-10T06:28:37;4.70;;;2.92;;
16472;SDS011;8347;52.486;13.432;2023-05-10T06:31:24;3.13;;;2.55;;
16472;SDS011;8347;52.486;13.432;2023-05-10T06:34:11;3.67;;;2.30;;
16472;SDS011;8347;52.486;13.432;2023-05-10T06:36:58;7.55;;;2.80;;
16472;SDS011;8347;52.486;13.432;2023-05-10T06:39:44;9.27;;;3.15;;
16472;SDS011;8347;52.486;13.432;2023-05-10T06:42:31;4.53;;;2.90;;
16472;SDS011;8347;52.486;13.432;2023-05-10T06:45:17;3.58;;;3.10;;
16472;SDS011;8347;52.486;13.432;2023-05-10T06:48:04;3.90;;;2.38;;
16472;SDS011;8347;52.486;13.432;2023-05-10T06:50:51;5.07;;;2.63;;
16472;SDS011;8347;52.486;13.432;2023-05-10T06:53:38;3.15;;;2.25;;
16472;SDS011;8347;52.486;13.432;2023-05-10T06:56:24;3.70;;;2.53;;
16472;SDS011;8347;52.486;13.432;2023-05-10T06:59:11;3.13;;;2.47;;
16472;SDS011;8347;52.486;13.432;2023-05-10T07:01:59;6.85;;;2.95;;
16472;SDS011;8347;52.486;13.432;2023-05-10T07:04:47;3.30;;;2.42;;
16472;SDS011;8347;52.486;13.432;2023-05-10T07:07:34;4.57;;;2.42;;
16472;SDS011;8347;52.486;13.432;2023-05-10T07:10:20;7.25;;;3.20;;
16472;SDS011;8347;52.486;13.432;2023-05-10T07:13:07;4.15;;;2.80;;
16472;SDS011;8347;52.486;13.432;2023-05-10T07:15:53;3.67;;;2.53;;
16472;SDS011;8347;52.486;13.432;2023-05-10T07:18:40;6.25;;;3.10;;
16472;SDS011;8347;52.486;13.432;2023-05-10T07:21:27;8.18;;;3.28;;
16472;SDS011;8347;52.486;13.432;2023-05-10T07:24:14;4.20;;;2.78;;
16472;SDS011;8347;52.486;13.432;2023-05-10T07:27:00;6.68;;;2.78;;
16472;SDS011;8347;52.486;13.432;2023-05-10T07:29:47;3.10;;;2.60;;
16472;SDS011;8347;52.486;13.432;2023-05-10T07:32:37;6.88;;;2.88;;
16472;SDS011;8347;52.486;13.432;2023-05-10T07:35:25;4.97;;;2.40;;
16472;SDS011;8347;52.486;13.432;2023-05-10T07:38:17;4.75;;;2.70;;
16472;SDS011;8347;52.486;13.432;2023-05-10T07:41:04;3.80;;;2.50;;
16472;SDS011;8347;52.486;13.432;2023-05-10T07:43:50;3.47;;;2.88;;
16472;SDS011;8347;52.486;13.432;2023-05-10T07:46:37;3.53;;;2.28;;
16472;SDS011;8347;52.486;13.432;2023-05-10T07:49:24;3.55;;;2.80;;
16472;SDS011;8347;52.486;13.432;2023-05-10T07:52:10;4.35;;;2.38;;
16472;SDS011;8347;52.486;13.432;2023-05-10T07:54:57;2.42;;;2.20;;
16472;SDS011;8347;52.486;13.432;2023-05-10T07:57:44;19.58;;;5.75;;
16472;SDS011;8347;52.486;13.432;2023-05-10T08:00:30;10.15;;;2.90;;
16472;SDS011;8347;52.486;13.432;2023-05-10T08:03:17;3.55;;;2.47;;
16472;SDS011;8347;52.486;13.432;2023-05-10T08:06:04;2.78;;;2.08;;
16472;SDS011;8347;52.486;13.432;2023-05-10T08:08:53;8.48;;;2.70;;
16472;SDS011;8347;52.486;13.432;2023-05-10T08:11:40;2.65;;;2.08;;
16472;SDS011;8347;52.486;13.432;2023-05-10T08:14:28;4.22;;;2.63;;
16472;SDS011;8347;52.486;13.432;2023-05-10T08:17:14;4.57;;;2.08;;
16472;SDS011;8347;52.486;13.432;2023-05-10T08:20:01;4.35;;;2.58;;
16472;SDS011;8347;52.486;13.432;2023-05-10T08:22:47;12.90;;;2.80;;
16472;SDS011;8347;52.486;13.432;2023-05-10T08:25:34;4.28;;;2.70;;
16472;SDS011;8347;52.486;13.432;2023-05-10T08:28:20;6.60;;;3.00;;
16472;SDS011;8347;52.486;13.432;2023-05-10T08:31:07;9.75;;;4.30;;
16472;SDS011;8347;52.486;13.432;2023-05-10T08:33:53;7.18;;;2.42;;
16472;SDS011;8347;52.486;13.432;2023-05-10T08:36:40;8.30;;;2.45;;
16472;SDS011;8347;52.486;13.432;2023-05-10T08:39:26;6.18;;;2.75;;
16472;SDS011;8347;52.486;13.432;2023-05-10T08:42:13;6.15;;;2.95;;
16472;SDS011;8347;52.486;13.432;2023-05-10T08:45:03;7.18;;;2.63;;
16472;SDS011;8347;52.486;13.432;2023-05-10T08:47:50;4.03;;;2.40;;
16472;SDS011;8347;52.486;13.432;2023-05-10T08:50:39;5.97;;;2.20;;
16472;SDS011;8347;52.486;13.432;2023-05-10T08:53:26;4.63;;;2.58;;
16472;SDS011;8347;52.486;13.432;2023-05-10T08:56:13;8.57;;;2.85;;
16472;SDS011;8347;52.486;13.432;2023-05-10T08:59:01;5.05;;;2.40;;
16472;SDS011;8347;52.486;13.432;2023-05-10T09:01:48;6.03;;;2.45;;
16472;SDS011;8347;52.486;13.432;2023-05-10T09:04:35;6.80;;;2.80;;
16472;SDS011;8347;52.486;13.432;2023-05-10T09:07:22;3.95;;;2.40;;
16472;SDS011;8347;52.486;13.432;2023-05-10T09:10:09;4.47;;;2.55;;
16472;SDS011;8347;52.486;13.432;2023-05-10T09:12:56;5.78;;;2.90;;
16472;SDS011;8347;52.486;13.432;2023-05-10T09:15:44;4.97;;;2.78;;
16472;SDS011;8347;52.486;13.432;2023-05-10T09:18:31;4.60;;;2.92;;
16472;SDS011;8347;52.486;13.432;2023-05-10T09:21:19;5.18;;;2.33;;
16472;SDS011;8347;52.486;13.432;2023-05-10T09:24:06;3.40;;;2.40;;
16472;SDS011;8347;52.486;13.432;2023-05-10T09:26:53;4.95;;;2.58;;
16472;SDS011;8347;52.486;13.432;2023-05-10T09:29:41;4.95;;;2.55;;
16472;SDS011;8347;52.486;13.432;2023-05-10T09:35:28;5.13;;;3.20;;
16472;SDS011;8347;52.486;13.432;2023-05-10T09:38:15;3.63;;;2.58;;
16472;SDS011;8347;52.486;13.432;2023-05-10T09:41:01;3.03;;;2.67;;
16472;SDS011;8347;52.486;13.432;2023-05-10T09:43:48;8.77;;;3.78;;
16472;SDS011;8347;52.486;13.432;2023-05-10T09:46:35;4.70;;;2.53;;
16472;SDS011;8347;52.486;13.432;2023-05-10T09:49:22;2.85;;;2.40;;
16472;SDS011;8347;52.486;13.432;2023-05-10T09:52:09;3.45;;;2.60;;
16472;SDS011;8347;52.486;13.432;2023-05-10T09:54:56;4.25;;;2.92;;
16472;SDS011;8347;52.486;13.432;2023-05-10T09:57:42;3.50;;;2.50;;
16472;SDS011;8347;52.486;13.432;2023-05-10T10:00:34;3.90;;;2.92;;
16472;SDS011;8347;52.486;13.432;2023-05-10T10:03:21;3.13;;;2.83;;
16472;SDS011;8347;52.486;13.432;2023-05-10T10:06:08;5.00;;;2.53;;
16472;SDS011;8347;52.486;13.432;2023-05-10T10:08:54;95.53;;;9.32;;
16472;SDS011;8347;52.486;13.432;2023-05-10T10:11:41;213.98;;;18.88;;
16472;SDS011;8347;52.486;13.432;2023-05-10T10:14:28;14.73;;;3.85;;
16472;SDS011;8347;52.486;13.432;2023-05-10T10:17:15;5.88;;;3.22;;
16472;SDS011;8347;52.486;13.432;2023-05-10T10:20:03;6.28;;;3.25;;
16472;SDS011;8347;52.486;13.432;2023-05-10T10:22:49;5.00;;;3.38;;
16472;SDS011;8347;52.486;13.432;2023-05-10T10:25:37;6.50;;;3.28;;
16472;SDS011;8347;52.486;13.432;2023-05-10T10:31:24;5.40;;;3.28;;
16472;SDS011;8347;52.486;13.432;2023-05-10T10:34:22;3.33;;;2.75;;
16472;SDS011;8347;52.486;13.432;2023-05-10T10:37:13;5.07;;;2.42;;
16472;SDS011;8347;52.486;13.432;2023-05-10T10:39:59;4.18;;;2.75;;
16472;SDS011;8347;52.486;13.432;2023-05-10T10:42:46;3.42;;;2.53;;
16472;SDS011;8347;52.486;13.432;2023-05-10T10:45:38;8.55;;;2.92;;
16472;SDS011;8347;52.486;13.432;2023-05-10T10:48:25;3.75;;;2.60;;
16472;SDS011;8347;52.486;13.432;2023-05-10T10:51:13;4.72;;;2.97;;
16472;SDS011;8347;52.486;13.432;2023-05-10T10:54:08;6.32;;;2.72;;
16472;SDS011;8347;52.486;13.432;2023-05-10T10:57:10;8.82;;;3.20;;
16472;SDS011;8347;52.486;13.432;2023-05-10T11:03:10;5.90;;;3.88;;
16472;SDS011;8347;52.486;13.432;2023-05-10T11:06:04;6.65;;;3.10;;
16472;SDS011;8347;52.486;13.432;2023-05-10T11:08:51;2.67;;;2.28;;
16472;SDS011;8347;52.486;13.432;2023-05-10T11:11:51;3.67;;;2.70;;
16472;SDS011;8347;52.486;13.432;2023-05-10T11:14:40;4.10;;;2.15;;
16472;SDS011;8347;52.486;13.432;2023-05-10T11:17:27;6.65;;;2.30;;
16472;SDS011;8347;52.486;13.432;2023-05-10T11:20:14;5.95;;;2.70;;
16472;SDS011;8347;52.486;13.432;2023-05-10T11:23:11;4.43;;;3.28;;
16472;SDS011;8347;52.486;13.432;2023-05-10T11:25:59;4.97;;;2.83;;
16472;SDS011;8347;52.486;13.432;2023-05-10T11:28:47;5.95;;;2.58;;
16472;SDS011;8347;52.486;13.432;2023-05-10T11:31:34;5.18;;;2.83;;
16472;SDS011;8347;52.486;13.432;2023-05-10T11:34:25;6.15;;;2.90;;
16472;SDS011;8347;52.486;13.432;2023-05-10T11:37:12;4.13;;;2.45;;
16472;SDS011;8347;52.486;13.432;2023-05-10T11:39:58;7.28;;;3.78;;
16472;SDS011;8347;52.486;13.432;2023-05-10T11:42:45;3.30;;;2.63;;
16472;SDS011;8347;52.486;13.432;2023-05-10T11:45:32;4.93;;;2.80;;
16472;SDS011;8347;52.486;13.432;2023-05-10T11:48:18;4.25;;;2.30;;
16472;SDS011;8347;52.486;13.432;2023-05-10T11:51:09;4.43;;;2.30;;
16472;SDS011;8347;52.486;13.432;2023-05-10T11:53:56;4.00;;;2.63;;
16472;SDS011;8347;52.486;13.432;2023-05-10T11:56:43;4.15;;;2.60;;
16472;SDS011;8347;52.486;13.432;2023-05-10T11:59:31;4.80;;;2.72;;
16472;SDS011;8347;52.486;13.432;2023-05-10T12:02:17;5.25;;;2.20;;
16472;SDS011;8347;52.486;13.432;2023-05-10T12:05:04;5.78;;;2.47;;
16472;SDS011;8347;52.486;13.432;2023-05-10T12:07:51;5.40;;;2.70;;
16472;SDS011;8347;52.486;13.432;2023-05-10T12:10:38;7.18;;;2.85;;
16472;SDS011;8347;52.486;13.432;2023-05-10T12:13:25;3.15;;;2.10;;
16472;SDS011;8347;52.486;13.432;2023-05-10T12:16:12;7.15;;;2.47;;
16472;SDS011;8347;52.486;13.432;2023-05-10T12:19:00;3.17;;;2.67;;
16472;SDS011;8347;52.486;13.432;2023-05-10T12:21:46;3.95;;;2.65;;
16472;SDS011;8347;52.486;13.432;2023-05-10T12:24:34;6.00;;;2.72;;
16472;SDS011;8347;52.486;13.432;2023-05-10T12:27:21;5.70;;;2.70;;
16472;SDS011;8347;52.486;13.432;2023-05-10T12:30:07;4.38;;;2.78;;
16472;SDS011;8347;52.486;13.432;2023-05-10T12:32:54;3.22;;;2.63;;
16472;SDS011;8347;52.486;13.432;2023-05-10T12:35:46;6.88;;;2.75;;
16472;SDS011;8347;52.486;13.432;2023-05-10T12:38:34;6.05;;;2.78;;
16472;SDS011;8347;52.486;13.432;2023-05-10T12:41:23;4.75;;;2.75;;
16472;SDS011;8347;52.486;13.432;2023-05-10T12:44:10;4.63;;;2.30;;
16472;SDS011;8347;52.486;13.432;2023-05-10T12:46:57;3.63;;;2.35;;
16472;SDS011;8347;52.486;13.432;2023-05-10T12:49:44;5.97;;;2.33;;
16472;SDS011;8347;52.486;13.432;2023-05-10T12:52:30;3.83;;;2.35;;
16472;SDS011;8347;52.486;13.432;2023-05-10T12:55:17;4.60;;;2.13;;
16472;SDS011;8347;52.486;13.432;2023-05-10T12:58:04;5.03;;;2.70;;
16472;SDS011;8347;52.486;13.432;2023-05-10T13:00:51;4.45;;;3.13;;
16472;SDS011;8347;52.486;13.432;2023-05-10T13:03:37;5.20;;;2.40;;
16472;SDS011;8347;52.486;13.432;2023-05-10T13:06:24;5.38;;;2.60;;
16472;SDS011;8347;52.486;13.432;2023-05-10T13:09:10;7.55;;;2.67;;
16472;SDS011;8347;52.486;13.432;2023-05-10T13:11:56;5.68;;;2.40;;
16472;SDS011;8347;52.486;13.432;2023-05-10T13:14:43;3.60;;;2.67;;
16472;SDS011;8347;52.486;13.432;2023-05-10T13:17:29;3.30;;;2.42;;
16472;SDS011;8347;52.486;13.432;2023-05-10T13:20:16;6.28;;;2.90;;
16472;SDS011;8347;52.486;13.432;2023-05-10T13:23:03;3.55;;;2.22;;
16472;SDS011;8347;52.486;13.432;2023-05-10T13:25:49;6.43;;;2.95;;
16472;SDS011;8347;52.486;13.432;2023-05-10T13:28:36;2.63;;;2.38;;
16472;SDS011;8347;52.486;13.432;2023-05-10T13:31:24;3.42;;;2.60;;
16472;SDS011;8347;52.486;13.432;2023-05-10T13:34:11;6.40;;;2.65;;
16472;SDS011;8347;52.486;13.432;2023-05-10T13:36:57;6.03;;;2.80;;
16472;SDS011;8347;52.486;13.432;2023-05-10T13:39:44;4.10;;;3.45;;
16472;SDS011;8347;52.486;13.432;2023-05-10T13:42:31;3.53;;;2.22;;
16472;SDS011;8347;52.486;13.432;2023-05-10T13:45:19;3.72;;;2.30;;
16472;SDS011;8347;52.486;13.432;2023-05-10T13:48:05;2.75;;;2.30;;
16472;SDS011;8347;52.486;13.432;2023-05-10T13:50:52;6.53;;;3.60;;
16472;SDS011;8347;52.486;13.432;2023-05-10T13:53:39;4.95;;;2.55;;
16472;SDS011;8347;52.486;13.432;2023-05-10T13:56:25;4.15;;;2.15;;
16472;SDS011;8347;52.486;13.432;2023-05-10T13:59:12;4.50;;;2.45;;
16472;SDS011;8347;52.486;13.432;2023-05-10T14:01:59;4.00;;;2.40;;
16472;SDS011;8347;52.486;13.432;2023-05-10T14:04:49;5.00;;;2.10;;
16472;SDS011;8347;52.486;13.432;2023-05-10T14:07:35;3.40;;;2.55;;
16472;SDS011;8347;52.486;13.432;2023-05-10T14:10:22;4.38;;;2.30;;
16472;SDS011;8347;52.486;13.432;2023-05-10T14:13:08;6.50;;;2.30;;
16472;SDS011;8347;52.486;13.432;2023-05-10T14:15:55;3.53;;;2.10;;
16472;SDS011;8347;52.486;13.432;2023-05-10T14:18:42;3.13;;;1.80;;
16472;SDS011;8347;52.486;13.432;2023-05-10T14:21:28;2.88;;;2.10;;
16472;SDS011;8347;52.486;13.432;2023-05-10T14:24:16;6.68;;;2.67;;
16472;SDS011;8347;52.486;13.432;2023-05-10T14:27:02;4.93;;;2.55;;
16472;SDS011;8347;52.486;13.432;2023-05-10T14:29:49;5.75;;;3.22;;
16472;SDS011;8347;52.486;13.432;2023-05-10T14:32:35;8.52;;;3.38;;
16472;SDS011;8347;52.486;13.432;2023-05-10T14:35:22;5.78;;;3.47;;
16472;SDS011;8347;52.486;13.432;2023-05-10T14:38:09;10.82;;;4.00;;
16472;SDS011;8347;52.486;13.432;2023-05-10T14:40:56;8.98;;;3.05;;
16472;SDS011;8347;52.486;13.432;2023-05-10T14:43:43;12.82;;;5.35;;
16472;SDS011;8347;52.486;13.432;2023-05-10T14:46:30;5.97;;;4.35;;
16472;SDS011;8347;52.486;13.432;2023-05-10T14:49:16;3.60;;;2.90;;
16472;SDS011;8347;52.486;13.432;2023-05-10T14:52:03;5.07;;;2.88;;
16472;SDS011;8347;52.486;13.432;2023-05-10T14:54:49;5.18;;;2.45;;
16472;SDS011;8347;52.486;13.432;2023-05-10T14:57:36;4.13;;;3.08;;
16472;SDS011;8347;52.486;13.432;2023-05-10T15:00:22;3.25;;;2.30;;
16472;SDS011;8347;52.486;13.432;2023-05-10T15:03:08;4.05;;;3.20;;
16472;SDS011;8347;52.486;13.432;2023-05-10T15:05:55;3.95;;;3.22;;
16472;SDS011;8347;52.486;13.432;2023-05-10T15:08:43;4.72;;;2.90;;
16472;SDS011;8347;52.486;13.432;2023-05-10T15:11:29;4.70;;;2.83;;
16472;SDS011;8347;52.486;13.432;2023-05-10T15:14:16;3.90;;;3.28;;
16472;SDS011;8347;52.486;13.432;2023-05-10T15:17:03;5.57;;;3.38;;
16472;SDS011;8347;52.486;13.432;2023-05-10T15:19:49;5.15;;;3.40;;
16472;SDS011;8347;52.486;13.432;2023-05-10T15:22:36;2.83;;;2.28;;
16472;SDS011;8347;52.486;13.432;2023-05-10T15:25:23;3.42;;;2.85;;
16472;SDS011;8347;52.486;13.432;2023-05-10T15:28:10;2.35;;;2.15;;
16472;SDS011;8347;52.486;13.432;2023-05-10T15:30:57;3.10;;;2.75;;
16472;SDS011;8347;52.486;13.432;2023-05-10T15:33:44;5.53;;;3.10;;
16472;SDS011;8347;52.486;13.432;2023-05-10T15:36:31;4.50;;;3.80;;
16472;SDS011;8347;52.486;13.432;2023-05-10T15:39:18;5.03;;;3.58;;
16472;SDS011;8347;52.486;13.432;2023-05-10T15:42:04;4.47;;;3.25;;
16472;SDS011;8347;52.486;13.432;2023-05-10T15:44:51;9.57;;;4.53;;
16472;SDS011;8347;52.486;13.432;2023-05-10T15:47:38;7.40;;;3.38;;
16472;SDS011;8347;52.486;13.432;2023-05-10T15:50:27;7.65;;;5.07;;
16472;SDS011;8347;52.486;13.432;2023-05-10T15:53:14;6.38;;;3.70;;
16472;SDS011;8347;52.486;13.432;2023-05-10T15:56:01;12.98;;;5.13;;
16472;SDS011;8347;52.486;13.432;2023-05-10T15:58:47;9.90;;;4.03;;
16472;SDS011;8347;52.486;13.432;2023-05-10T16:01:34;4.93;;;3.10;;
16472;SDS011;8347;52.486;13.432;2023-05-10T16:04:21;10.13;;;3.15;;
16472;SDS011;8347;52.486;13.432;2023-05-10T16:07:08;6.10;;;2.80;;
16472;SDS011;8347;52.486;13.432;2023-05-10T16:09:54;3.53;;;2.88;;
16472;SDS011;8347;52.486;13.432;2023-05-10T16:12:40;5.60;;;3.75;;
16472;SDS011;8347;52.486;13.432;2023-05-10T16:15:27;6.80;;;3.30;;
16472;SDS011;8347;52.486;13.432;2023-05-10T16:18:14;5.93;;;3.05;;
16472;SDS011;8347;52.486;13.432;2023-05-10T16:21:02;3.28;;;2.35;;
16472;SDS011;8347;52.486;13.432;2023-05-10T16:23:49;4.00;;;2.17;;
16472;SDS011;8347;52.486;13.432;2023-05-10T16:26:35;6.38;;;3.00;;
16472;SDS011;8347;52.486;13.432;2023-05-10T16:29:25;4.00;;;2.70;;
16472;SDS011;8347;52.486;13.432;2023-05-10T16:32:12;3.92;;;2.97;;
16472;SDS011;8347;52.486;13.432;2023-05-10T16:34:58;7.53;;;3.45;;
16472;SDS011;8347;52.486;13.432;2023-05-10T16:37:45;5.95;;;4.15;;
16472;SDS011;8347;52.486;13.432;2023-05-10T16:40:31;7.20;;;4.38;;
16472;SDS011;8347;52.486;13.432;2023-05-10T16:43:18;10.82;;;7.13;;
16472;SDS011;8347;52.486;13.432;2023-05-10T16:46:08;12.10;;;8.30;;
16472;SDS011;8347;52.486;13.432;2023-05-10T16:48:55;8.35;;;5.70;;
16472;SDS011;8347;52.486;13.432;2023-05-10T16:51:44;10.30;;;5.00;;
16472;SDS011;8347;52.486;13.432;2023-05-10T16:54:30;7.30;;;5.43;;
16472;SDS011;8347;52.486;13.432;2023-05-10T16:57:17;6.70;;;5.75;;
16472;SDS011;8347;52.486;13.432;2023-05-10T17:00:04;7.20;;;5.38;;
16472;SDS011;8347;52.486;13.432;2023-05-10T17:02:50;6.70;;;5.03;;
16472;SDS011;8347;52.486;13.432;2023-05-10T17:05:39;6.60;;;5.00;;